createdAt,value
2023-03-06T00:09:34.755Z,22.00
2023-03-06T00:24:36.246Z,22.00
2023-03-06T00:39:37.710Z,21.90
2023-03-06T00:54:39.185Z,21.90
2023-03-06T01:09:40.656Z,21.90
2023-03-06T01:24:42.125Z,21.90
2023-03-06T01:39:43.606Z,21.90
2023-03-06T01:54:45.051Z,21.90
2023-03-06T02:09:46.523Z,21.90
2023-03-06T02:24:47.988Z,21.90
2023-03-06T02:39:49.454Z,21.80
2023-03-06T02:54:50.927Z,21.80
2023-03-06T03:09:52.411Z,21.90
2023-03-06T03:24:53.904Z,21.90
2023-03-06T03:39:55.392Z,21.80
2023-03-06T03:54:56.885Z,21.80
2023-03-06T04:09:58.360Z,21.80
2023-03-06T04:24:59.824Z,21.80
2023-03-06T04:40:01.308Z,21.80
2023-03-06T04:55:02.902Z,21.80
2023-03-06T05:10:04.362Z,21.80
2023-03-06T05:25:05.824Z,21.80
2023-03-06T05:40:07.301Z,21.80
2023-03-06T05:55:08.771Z,21.80
2023-03-06T06:10:10.265Z,21.80
2023-03-06T06:25:11.716Z,21.80
2023-03-06T06:40:13.165Z,21.80
2023-03-06T06:55:14.636Z,21.80
2023-03-06T07:10:16.098Z,21.80
2023-03-06T07:25:17.557Z,21.80
2023-03-06T07:40:19.044Z,21.80
2023-03-06T07:55:20.507Z,21.90
2023-03-06T08:10:21.977Z,21.90
2023-03-06T08:25:24.561Z,21.90
2023-03-06T08:40:26.029Z,21.50
2023-03-06T08:55:27.487Z,22.10
2023-03-06T09:10:28.956Z,22.30
2023-03-06T09:25:30.461Z,22.40
2023-03-06T09:40:31.932Z,22.50
2023-03-06T09:55:33.397Z,22.70
2023-03-06T10:10:34.862Z,22.90
2023-03-06T10:25:36.329Z,23.20
2023-03-06T10:40:37.796Z,23.50
2023-03-06T10:55:39.271Z,23.70
2023-03-06T11:10:40.749Z,24.10
2023-03-06T11:25:42.269Z,25.70
2023-03-06T11:40:43.730Z,28.10
2023-03-06T11:55:45.195Z,26.90
2023-03-06T12:10:51.486Z,26.50
2023-03-06T12:25:53.632Z,28.20
2023-03-06T12:40:55.099Z,29.00
2023-03-06T12:55:56.550Z,28.60
2023-03-06T13:10:58.035Z,28.30
2023-03-06T13:25:59.529Z,28.40
2023-03-06T13:41:01.061Z,28.60
2023-03-06T13:56:02.534Z,27.70
2023-03-06T14:11:04.004Z,27.20
2023-03-06T14:26:05.491Z,26.70
2023-03-06T14:41:06.990Z,26.30
2023-03-06T14:56:08.460Z,26.00
2023-03-06T15:11:09.929Z,25.70
2023-03-06T15:26:11.395Z,25.40
2023-03-06T15:41:12.881Z,25.10
2023-03-06T15:56:14.381Z,24.60
2023-03-06T16:11:15.852Z,24.30
2023-03-06T16:26:17.337Z,24.20
2023-03-06T16:41:18.814Z,24.00
2023-03-06T16:56:20.271Z,23.90
2023-03-06T17:11:21.757Z,23.70
2023-03-06T17:26:23.254Z,23.60
2023-03-06T17:41:24.733Z,23.50
2023-03-06T17:56:26.203Z,23.30
2023-03-06T18:11:27.673Z,23.30
2023-03-06T18:26:29.172Z,23.10
2023-03-06T18:41:30.659Z,23.00
2023-03-06T18:56:32.120Z,23.10
2023-03-06T19:11:33.607Z,23.00
2023-03-06T19:26:35.067Z,23.00
2023-03-06T19:41:36.552Z,22.90
2023-03-06T19:56:38.098Z,22.90
2023-03-06T20:11:39.552Z,22.90
2023-03-06T20:26:41.024Z,22.80
2023-03-06T20:41:42.527Z,22.70
2023-03-06T20:56:44.002Z,22.70
2023-03-06T21:11:45.648Z,22.60
2023-03-06T21:26:47.164Z,22.60
2023-03-06T21:41:48.624Z,22.50
2023-03-06T21:56:50.085Z,22.50
2023-03-06T22:11:51.562Z,22.40
2023-03-06T22:26:53.035Z,22.40
2023-03-06T22:41:54.488Z,22.40
2023-03-06T22:56:55.956Z,22.30
2023-03-06T23:11:57.422Z,22.30
2023-03-06T23:26:58.882Z,22.30
2023-03-06T23:42:00.361Z,22.30
2023-03-06T23:57:01.822Z,22.30
